createdAt,value
2022-11-22T00:02:24.273Z,8.30
2022-11-22T00:04:54.511Z,9.52
2022-11-22T00:07:23.382Z,10.02
2022-11-22T00:09:58.009Z,11.98
2022-11-22T00:12:27.141Z,10.45
2022-11-22T00:14:57.149Z,14.48
2022-11-22T00:17:28.181Z,12.38
2022-11-22T00:19:58.398Z,10.52
2022-11-22T00:22:27.216Z,9.77
2022-11-22T00:24:55.951Z,9.73
2022-11-22T00:27:24.728Z,10.82
2022-11-22T00:29:54.033Z,11.70
2022-11-22T00:32:22.998Z,12.55
2022-11-22T00:34:51.780Z,11.75
2022-11-22T00:37:21.916Z,10.98
2022-11-22T00:39:50.642Z,7.53
2022-11-22T00:42:19.486Z,13.40
2022-11-22T00:44:48.310Z,12.55
2022-11-22T00:47:17.034Z,10.13
2022-11-22T00:49:45.861Z,13.40
2022-11-22T00:52:15.938Z,11.40
2022-11-22T00:54:53.053Z,11.10
2022-11-22T00:57:23.657Z,11.65
2022-11-22T00:59:52.531Z,12.15
2022-11-22T01:02:21.285Z,14.85
2022-11-22T01:04:50.098Z,15.02
2022-11-22T01:07:19.963Z,10.57
2022-11-22T01:09:51.825Z,11.10
2022-11-22T01:12:22.026Z,11.48
2022-11-22T01:14:53.612Z,13.68
2022-11-22T01:17:26.801Z,11.20
2022-11-22T01:19:57.278Z,14.10
2022-11-22T01:22:27.677Z,13.75
2022-11-22T01:24:59.362Z,9.48
2022-11-22T01:27:46.847Z,14.50
2022-11-22T01:30:18.082Z,10.55
2022-11-22T01:32:46.800Z,11.13
2022-11-22T01:35:15.906Z,12.50
2022-11-22T01:37:44.744Z,12.85
2022-11-22T01:40:15.629Z,12.65
2022-11-22T01:42:49.544Z,13.55
2022-11-22T01:45:45.279Z,14.57
2022-11-22T01:48:50.080Z,11.13
2022-11-22T01:51:27.147Z,14.65
2022-11-22T01:54:01.851Z,12.88
2022-11-22T01:56:33.750Z,12.38
2022-11-22T01:59:11.471Z,11.45
2022-11-22T02:01:40.279Z,13.02
2022-11-22T02:04:15.450Z,13.85
2022-11-22T02:06:56.030Z,10.05
2022-11-22T02:09:25.166Z,14.45
2022-11-22T02:12:01.493Z,10.90
2022-11-22T02:14:32.819Z,12.80
2022-11-22T02:17:02.093Z,8.68
2022-11-22T02:19:43.338Z,12.45
2022-11-22T02:22:31.193Z,13.20
2022-11-22T02:25:13.721Z,10.30
2022-11-22T02:27:44.522Z,12.23
2022-11-22T02:30:13.713Z,12.80
2022-11-22T02:32:42.672Z,12.80
2022-11-22T02:35:21.032Z,11.20
2022-11-22T02:37:56.111Z,10.73
2022-11-22T02:40:27.823Z,14.15
2022-11-22T02:43:04.691Z,10.80
2022-11-22T02:45:33.609Z,13.38
2022-11-22T02:48:08.902Z,12.32
2022-11-22T02:50:38.214Z,15.15
2022-11-22T02:53:08.659Z,13.18
2022-11-22T02:55:38.037Z,12.23
2022-11-22T02:58:08.657Z,11.70
2022-11-22T03:00:39.755Z,12.20
2022-11-22T03:03:08.882Z,13.52
2022-11-22T03:05:37.736Z,13.93
2022-11-22T03:08:06.633Z,9.85
2022-11-22T03:10:35.507Z,10.98
2022-11-22T03:13:04.325Z,10.02
2022-11-22T03:15:34.485Z,10.93
2022-11-22T03:18:05.431Z,11.68
2022-11-22T03:20:35.507Z,11.85
2022-11-22T03:23:04.359Z,12.52
2022-11-22T03:25:33.287Z,12.75
2022-11-22T03:28:02.110Z,12.68
2022-11-22T03:30:30.909Z,13.00
2022-11-22T03:33:01.234Z,12.88
2022-11-22T03:35:30.065Z,10.55
2022-11-22T03:37:58.902Z,12.52
2022-11-22T03:40:27.722Z,11.48
2022-11-22T03:42:56.482Z,11.43
2022-11-22T03:45:25.244Z,11.45
2022-11-22T03:47:54.098Z,12.07
2022-11-22T03:50:24.322Z,11.38
2022-11-22T03:52:53.275Z,12.07
2022-11-22T03:55:22.146Z,12.15
2022-11-22T03:57:50.849Z,11.10
2022-11-22T04:00:20.418Z,14.75
2022-11-22T04:02:49.296Z,12.88
2022-11-22T04:05:18.240Z,11.52
2022-11-22T04:07:48.952Z,12.73
2022-11-22T04:10:22.293Z,12.52
2022-11-22T04:12:51.399Z,12.60
2022-11-22T04:15:19.316Z,12.25
2022-11-22T04:17:48.184Z,12.98
2022-11-22T04:20:37.546Z,12.60
2022-11-22T04:23:10.761Z,10.13
2022-11-22T04:25:42.497Z,12.77
2022-11-22T04:28:12.720Z,11.70
2022-11-22T04:30:59.188Z,11.48
2022-11-22T04:33:27.960Z,12.85
2022-11-22T04:35:57.061Z,12.07
2022-11-22T04:38:28.211Z,12.95
2022-11-22T04:40:56.973Z,14.30
2022-11-22T04:43:46.080Z,12.23
2022-11-22T04:46:16.616Z,13.00
2022-11-22T04:48:45.456Z,11.00
2022-11-22T04:51:33.740Z,10.63
2022-11-22T04:54:03.859Z,12.82
2022-11-22T04:56:32.645Z,12.68
2022-11-22T04:59:01.358Z,15.75
2022-11-22T05:01:30.303Z,13.77
2022-11-22T05:03:59.145Z,15.30
2022-11-22T05:06:27.913Z,15.18
2022-11-22T05:08:57.238Z,13.70
2022-11-22T05:11:27.411Z,12.40
2022-11-22T05:13:56.132Z,15.50
2022-11-22T05:16:24.882Z,13.77
2022-11-22T05:19:00.194Z,14.38
2022-11-22T05:21:31.108Z,11.80
2022-11-22T05:23:58.910Z,15.25
2022-11-22T05:26:31.628Z,13.82
2022-11-22T05:29:05.849Z,14.00
2022-11-22T05:31:36.467Z,13.05
2022-11-22T05:34:05.759Z,14.68
2022-11-22T05:36:35.926Z,14.57
2022-11-22T05:39:05.247Z,14.95
2022-11-22T05:41:35.408Z,14.05
2022-11-22T05:44:04.530Z,13.00
2022-11-22T05:46:33.319Z,13.57
2022-11-22T05:49:02.373Z,14.80
2022-11-22T05:51:34.699Z,14.02
2022-11-22T05:54:04.612Z,15.35
2022-11-22T05:56:35.032Z,12.93
2022-11-22T05:59:03.922Z,15.48
2022-11-22T06:01:33.027Z,12.93
2022-11-22T06:04:02.945Z,15.38
2022-11-22T06:06:31.957Z,15.07
2022-11-22T06:09:01.427Z,12.57
2022-11-22T06:11:30.458Z,14.98
2022-11-22T06:14:03.336Z,15.10
2022-11-22T06:16:32.624Z,16.33
2022-11-22T06:19:01.668Z,14.35
2022-11-22T06:21:30.608Z,13.75
2022-11-22T06:23:59.719Z,14.90
2022-11-22T06:26:32.414Z,14.82
2022-11-22T06:29:05.890Z,15.18
2022-11-22T06:31:34.908Z,15.27
2022-11-22T06:34:03.883Z,17.95
2022-11-22T06:41:02.255Z,14.93
2022-11-22T06:43:34.837Z,11.40
2022-11-22T06:46:07.723Z,17.05
2022-11-22T06:48:39.326Z,14.70
2022-11-22T06:51:14.953Z,16.20
2022-11-22T06:53:48.550Z,15.68
2022-11-22T06:56:21.307Z,14.70
2022-11-22T06:58:51.815Z,16.98
2022-11-22T07:01:24.126Z,14.48
2022-11-22T07:03:56.182Z,15.55
2022-11-22T07:06:50.413Z,16.83
2022-11-22T07:09:19.568Z,17.85
2022-11-22T07:11:48.604Z,13.52
2022-11-22T07:14:17.687Z,14.57
2022-11-22T07:16:48.077Z,14.30
2022-11-22T07:19:17.286Z,15.23
2022-11-22T07:21:59.752Z,15.25
2022-11-22T07:24:30.351Z,15.38
2022-11-22T07:26:59.396Z,13.63
2022-11-22T07:29:28.703Z,13.70
2022-11-22T07:31:59.448Z,14.45
2022-11-22T07:34:28.493Z,15.20
2022-11-22T07:37:01.453Z,14.38
2022-11-22T07:39:32.729Z,12.63
2022-11-22T07:42:01.846Z,13.68
2022-11-22T07:44:30.946Z,14.57
2022-11-22T07:47:01.488Z,11.82
2022-11-22T07:49:30.822Z,14.93
2022-11-22T07:52:00.177Z,12.85
2022-11-22T07:54:29.239Z,14.00
2022-11-22T07:56:58.231Z,15.75
2022-11-22T07:59:27.698Z,12.98
2022-11-22T08:01:56.947Z,12.35
2022-11-22T08:04:27.402Z,13.05
2022-11-22T08:07:22.575Z,16.27
2022-11-22T08:09:51.684Z,17.35
2022-11-22T08:12:20.708Z,15.05
2022-11-22T08:14:49.712Z,13.05
2022-11-22T08:17:18.928Z,14.55
2022-11-22T08:19:53.495Z,15.88
2022-11-22T08:22:22.608Z,18.35
2022-11-22T08:24:53.751Z,14.85
2022-11-22T08:27:22.883Z,16.30
2022-11-22T08:29:51.911Z,15.98
2022-11-22T08:32:20.983Z,15.93
2022-11-22T08:34:51.423Z,16.35
2022-11-22T08:37:20.487Z,12.70
2022-11-22T08:41:03.937Z,11.35
2022-11-22T08:43:33.309Z,18.77
2022-11-22T08:46:02.991Z,15.00
2022-11-22T08:48:33.956Z,14.98
2022-11-22T08:51:06.800Z,16.58
2022-11-22T08:53:37.506Z,14.00
2022-11-22T08:56:09.752Z,16.02
2022-11-22T08:58:39.592Z,17.20
2022-11-22T09:01:10.293Z,14.15
2022-11-22T09:03:40.286Z,18.35
2022-11-22T09:09:51.845Z,16.65
2022-11-22T09:12:20.869Z,16.42
2022-11-22T09:14:49.987Z,15.07
2022-11-22T09:17:19.084Z,17.83
2022-11-22T09:19:48.143Z,15.85
2022-11-22T09:22:17.138Z,17.30
2022-11-22T09:24:46.164Z,19.23
2022-11-22T09:27:16.594Z,18.73
2022-11-22T09:29:45.674Z,19.40
2022-11-22T09:32:14.691Z,17.48
2022-11-22T09:34:56.076Z,18.23
2022-11-22T09:37:25.141Z,16.38
2022-11-22T09:39:54.075Z,16.75
2022-11-22T09:42:38.207Z,15.57
2022-11-22T09:45:37.237Z,15.80
2022-11-22T09:48:18.966Z,18.33
2022-11-22T09:50:57.934Z,17.02
2022-11-22T09:53:34.255Z,15.70
2022-11-22T09:56:09.682Z,14.65
2022-11-22T09:58:43.690Z,17.80
2022-11-22T10:01:18.238Z,17.55
2022-11-22T10:03:53.180Z,19.67
2022-11-22T10:06:28.487Z,18.63
2022-11-22T10:09:07.939Z,19.63
2022-11-22T10:11:44.494Z,20.38
2022-11-22T10:14:26.902Z,18.05
2022-11-22T10:17:02.550Z,17.58
2022-11-22T10:19:38.969Z,15.85
2022-11-22T10:22:13.731Z,20.40
2022-11-22T10:24:43.667Z,17.15
2022-11-22T10:27:15.229Z,18.75
2022-11-22T10:29:52.682Z,15.60
2022-11-22T10:32:58.414Z,16.75
2022-11-22T10:35:47.929Z,16.10
2022-11-22T10:38:41.256Z,18.27
2022-11-22T10:41:21.179Z,19.70
2022-11-22T10:44:07.292Z,18.15
2022-11-22T10:46:49.278Z,19.35
2022-11-22T10:49:29.937Z,17.42
2022-11-22T10:52:05.975Z,16.45
2022-11-22T10:54:43.521Z,14.75
2022-11-22T10:57:31.253Z,17.30
2022-11-22T11:00:16.460Z,20.10
2022-11-22T11:03:16.794Z,14.77
2022-11-22T11:11:33.324Z,23.10
2022-11-22T11:14:08.770Z,17.60
2022-11-22T11:16:39.158Z,17.10
2022-11-22T11:19:18.770Z,14.77
2022-11-22T11:21:53.672Z,23.40
2022-11-22T11:25:12.920Z,20.95
2022-11-22T11:27:43.990Z,16.52
2022-11-22T11:30:14.167Z,17.40
2022-11-22T11:32:54.482Z,18.55
2022-11-22T11:35:28.631Z,15.77
2022-11-22T11:37:58.403Z,17.60
2022-11-22T11:40:29.691Z,16.90
2022-11-22T11:43:20.661Z,20.00
2022-11-22T11:45:50.239Z,15.30
2022-11-22T11:48:30.521Z,18.77
2022-11-22T11:51:14.654Z,18.60
2022-11-22T11:53:52.139Z,16.73
2022-11-22T11:56:33.622Z,17.58
2022-11-22T11:59:09.069Z,19.20
2022-11-22T12:01:39.240Z,15.68
2022-11-22T12:04:17.788Z,17.13
2022-11-22T12:07:02.795Z,15.77
2022-11-22T12:09:38.115Z,16.65
2022-11-22T12:12:20.856Z,20.55
2022-11-22T12:15:10.861Z,16.98
2022-11-22T12:17:51.393Z,19.73
2022-11-22T12:20:26.516Z,18.02
2022-11-22T12:23:07.162Z,17.88
2022-11-22T12:25:40.136Z,16.38
2022-11-22T12:28:19.234Z,17.02
2022-11-22T12:30:53.939Z,18.15
2022-11-22T12:33:28.858Z,17.98
2022-11-22T12:35:59.146Z,17.13
2022-11-22T12:38:34.186Z,18.27
2022-11-22T12:41:07.210Z,19.98
2022-11-22T12:43:43.014Z,17.27
2022-11-22T12:46:17.412Z,18.75
2022-11-22T12:48:50.607Z,17.08
2022-11-22T12:51:27.443Z,20.20
2022-11-22T12:54:03.498Z,16.88
2022-11-22T12:56:39.422Z,18.48
2022-11-22T12:59:17.205Z,15.50
2022-11-22T13:01:53.667Z,17.20
2022-11-22T13:04:32.105Z,18.88
2022-11-22T13:07:13.419Z,18.15
2022-11-22T13:09:51.169Z,15.80
2022-11-22T13:12:31.103Z,19.25
2022-11-22T13:15:04.925Z,18.90
2022-11-22T13:17:39.406Z,17.15
2022-11-22T13:20:17.947Z,19.30
2022-11-22T13:22:59.247Z,17.80
2022-11-22T13:25:49.654Z,15.32
2022-11-22T13:28:24.393Z,18.00
2022-11-22T13:31:14.363Z,19.70
2022-11-22T13:33:55.269Z,17.38
2022-11-22T13:36:42.066Z,16.92
2022-11-22T13:39:21.230Z,15.18
2022-11-22T13:42:02.065Z,17.20
2022-11-22T13:44:51.166Z,21.30
2022-11-22T13:47:41.959Z,19.10
2022-11-22T13:51:00.507Z,20.17
2022-11-22T13:53:32.943Z,17.25
2022-11-22T13:57:01.208Z,16.73
2022-11-22T13:59:31.305Z,19.30
2022-11-22T14:02:23.306Z,18.15
2022-11-22T14:04:56.842Z,15.95
2022-11-22T14:07:40.220Z,16.02
2022-11-22T14:10:30.194Z,16.40
2022-11-22T14:13:21.865Z,16.95
2022-11-22T14:16:02.910Z,17.02
2022-11-22T14:18:56.624Z,18.05
2022-11-22T14:22:12.183Z,18.70
2022-11-22T14:25:03.708Z,17.70
2022-11-22T14:27:45.207Z,15.57
2022-11-22T14:30:22.204Z,19.27
2022-11-22T14:33:02.827Z,16.15
2022-11-22T14:35:38.730Z,20.52
2022-11-22T14:38:30.682Z,19.75
2022-11-22T14:41:32.382Z,17.95
2022-11-22T14:44:06.361Z,16.85
2022-11-22T14:46:53.301Z,17.92
2022-11-22T14:49:38.982Z,17.08
2022-11-22T14:52:21.746Z,17.10
2022-11-22T14:54:56.541Z,15.95
2022-11-22T14:57:30.076Z,16.38
2022-11-22T15:00:19.431Z,18.35
2022-11-22T15:03:37.447Z,16.90
2022-11-22T15:09:20.996Z,19.27
2022-11-22T15:09:53.331Z,15.20
2022-11-22T15:13:07.017Z,17.80
2022-11-22T15:57:35.319Z,17.15
2022-11-22T16:00:31.698Z,19.45
2022-11-22T16:03:04.619Z,17.85
2022-11-22T16:06:10.537Z,17.45
2022-11-22T16:08:31.048Z,16.85
2022-11-22T16:11:07.220Z,21.25
2022-11-22T16:13:38.065Z,19.38
2022-11-22T16:16:22.305Z,16.13
2022-11-22T16:18:53.454Z,19.67
2022-11-22T16:21:29.155Z,20.77
2022-11-22T16:24:19.188Z,16.92
2022-11-22T16:27:01.034Z,18.50
2022-11-22T16:29:33.461Z,18.13
2022-11-22T16:32:06.859Z,17.38
2022-11-22T16:34:36.806Z,17.55
2022-11-22T16:37:29.008Z,18.50
2022-11-22T16:40:01.407Z,17.88
2022-11-22T16:42:33.690Z,17.90
2022-11-22T16:45:04.432Z,17.98
2022-11-22T16:47:35.798Z,18.10
2022-11-22T16:50:06.017Z,23.00
2022-11-22T16:52:38.166Z,19.10
2022-11-22T16:55:08.479Z,18.20
2022-11-22T16:57:39.533Z,19.42
2022-11-22T17:00:10.750Z,18.30
2022-11-22T17:02:41.451Z,20.35
2022-11-22T17:05:18.338Z,18.70
2022-11-22T17:07:48.539Z,19.10
2022-11-22T17:10:17.976Z,16.60
2022-11-22T17:12:49.596Z,18.98
2022-11-22T17:15:23.744Z,17.45
2022-11-22T17:17:53.272Z,18.77
2022-11-22T17:20:23.372Z,20.77
2022-11-22T17:22:55.400Z,21.25
2022-11-22T17:25:26.338Z,20.80
2022-11-22T17:27:59.125Z,21.08
2022-11-22T17:30:28.930Z,20.23
2022-11-22T17:32:58.361Z,20.40
2022-11-22T17:35:33.224Z,17.98
2022-11-22T17:38:05.677Z,21.88
2022-11-22T17:40:36.685Z,20.77
2022-11-22T17:43:08.051Z,18.67
2022-11-22T17:45:44.105Z,19.98
2022-11-22T17:48:14.333Z,17.15
2022-11-22T17:50:43.988Z,20.90
2022-11-22T17:53:13.280Z,16.80
2022-11-22T17:58:42.225Z,20.30
2022-11-22T18:01:14.055Z,17.67
2022-11-22T18:03:44.850Z,19.80
2022-11-22T18:06:15.424Z,19.95
2022-11-22T18:08:47.448Z,16.75
2022-11-22T18:11:19.072Z,18.17
2022-11-22T18:13:50.490Z,19.60
2022-11-22T18:16:20.455Z,19.55
2022-11-22T18:18:58.120Z,19.02
2022-11-22T18:21:30.839Z,19.33
2022-11-22T18:24:01.471Z,19.65
2022-11-22T18:26:40.421Z,18.48
2022-11-22T18:32:04.568Z,19.20
2022-11-22T18:34:36.148Z,20.00
2022-11-22T18:37:06.130Z,16.75
2022-11-22T18:39:38.546Z,19.20
2022-11-22T18:42:13.782Z,19.58
2022-11-22T18:44:45.303Z,20.00
2022-11-22T18:47:15.246Z,20.40
2022-11-22T18:49:46.543Z,22.27
2022-11-22T18:52:17.955Z,22.88
2022-11-22T18:54:50.087Z,17.75
2022-11-22T18:57:20.375Z,16.40
2022-11-22T18:59:51.957Z,17.70
2022-11-22T19:02:26.202Z,18.10
2022-11-22T19:04:56.405Z,20.13
2022-11-22T19:07:26.327Z,21.15
2022-11-22T19:09:56.373Z,21.75
2022-11-22T19:12:29.652Z,23.58
2022-11-22T19:15:01.365Z,24.58
2022-11-22T19:17:34.845Z,20.05
2022-11-22T19:20:05.831Z,19.35
2022-11-22T19:22:36.051Z,19.50
2022-11-22T19:25:07.015Z,17.95
2022-11-22T19:27:37.463Z,20.33
2022-11-22T19:30:10.785Z,19.55
2022-11-22T19:32:40.764Z,19.17
2022-11-22T19:35:11.806Z,17.90
2022-11-22T19:37:42.109Z,19.40
2022-11-22T19:40:12.275Z,24.50
2022-11-22T19:42:41.324Z,17.30
2022-11-22T19:45:12.352Z,25.92
2022-11-22T19:47:41.377Z,18.35
2022-11-22T19:50:10.483Z,18.40
2022-11-22T19:52:39.543Z,20.00
2022-11-22T19:55:09.185Z,18.48
2022-11-22T19:57:38.264Z,19.17
2022-11-22T20:00:09.970Z,21.27
2022-11-22T20:02:40.448Z,20.00
2022-11-22T20:05:10.570Z,17.73
2022-11-22T20:07:39.679Z,17.77
2022-11-22T20:10:09.328Z,19.70
2022-11-22T20:12:39.676Z,15.90
2022-11-22T20:15:09.476Z,18.88
2022-11-22T20:17:40.152Z,19.17
2022-11-22T20:20:10.467Z,21.25
2022-11-22T20:22:39.577Z,20.10
2022-11-22T20:25:09.531Z,22.25
2022-11-22T20:27:38.569Z,19.50
2022-11-22T20:30:08.599Z,19.08
2022-11-22T20:32:40.968Z,18.67
2022-11-22T20:35:11.679Z,19.73
2022-11-22T20:37:40.841Z,20.40
2022-11-22T20:40:10.578Z,18.67
2022-11-22T20:42:40.288Z,18.90
2022-11-22T20:45:10.570Z,18.67
2022-11-22T20:47:39.864Z,20.15
2022-11-22T20:50:11.402Z,20.90
2022-11-22T20:52:40.395Z,19.38
2022-11-22T20:55:10.571Z,18.52
2022-11-22T20:57:41.007Z,20.30
2022-11-22T21:00:11.577Z,17.92
2022-11-22T21:02:40.586Z,18.08
2022-11-22T21:05:12.239Z,21.13
2022-11-22T21:07:41.277Z,17.85
2022-11-22T21:10:10.798Z,18.00
2022-11-22T21:12:39.809Z,19.38
2022-11-22T21:15:09.678Z,19.98
2022-11-22T21:17:50.571Z,19.60
2022-11-22T21:20:30.570Z,21.15
2022-11-22T21:22:59.778Z,23.67
2022-11-22T21:25:28.877Z,19.58
2022-11-22T21:27:58.126Z,21.25
2022-11-22T21:30:27.143Z,17.55
2022-11-22T21:32:56.233Z,21.08
2022-11-22T21:35:25.351Z,20.10
2022-11-22T21:38:43.806Z,18.73
2022-11-22T21:44:08.350Z,18.88
2022-11-22T21:46:37.785Z,19.83
2022-11-22T21:49:06.900Z,19.70
2022-11-22T21:51:36.682Z,20.13
2022-11-22T21:54:08.777Z,18.75
2022-11-22T21:56:39.243Z,18.48
2022-11-22T21:59:09.464Z,21.67
2022-11-22T22:01:40.240Z,19.70
2022-11-22T22:04:09.419Z,18.77
2022-11-22T22:06:42.324Z,20.02
2022-11-22T22:09:15.406Z,21.50
2022-11-22T22:11:47.692Z,21.15
2022-11-22T22:14:17.136Z,18.20
2022-11-22T22:16:46.256Z,25.83
2022-11-22T22:19:16.368Z,18.70
2022-11-22T22:21:45.791Z,18.35
2022-11-22T22:24:16.509Z,23.08
2022-11-22T22:26:45.580Z,19.98
2022-11-22T22:29:14.548Z,20.83
2022-11-22T22:31:43.696Z,22.45
2022-11-22T22:34:15.715Z,22.73
2022-11-22T22:36:44.752Z,21.83
2022-11-22T22:39:15.213Z,18.92
2022-11-22T22:41:44.172Z,20.33
2022-11-22T22:44:13.368Z,19.13
2022-11-22T22:46:42.581Z,19.05
2022-11-22T22:49:11.725Z,20.35
2022-11-22T22:51:40.785Z,20.52
2022-11-22T22:55:02.899Z,20.05
2022-11-22T22:57:33.299Z,18.27
2022-11-22T23:00:02.650Z,20.92
2022-11-22T23:02:31.841Z,22.20
2022-11-22T23:05:00.886Z,21.67
2022-11-22T23:07:29.916Z,18.77
2022-11-22T23:09:58.918Z,21.55
2022-11-22T23:12:27.983Z,19.80
2022-11-22T23:14:58.417Z,20.27
2022-11-22T23:17:27.488Z,22.33
2022-11-22T23:19:56.544Z,23.35
2022-11-22T23:22:26.152Z,20.70
2022-11-22T23:24:55.314Z,20.35
2022-11-22T23:27:24.417Z,20.55
2022-11-22T23:29:53.351Z,20.27
2022-11-22T23:32:23.943Z,21.08
2022-11-22T23:34:53.100Z,22.70
2022-11-22T23:37:22.070Z,21.23
2022-11-22T23:39:51.457Z,19.58
2022-11-22T23:42:20.401Z,23.48
2022-11-22T23:44:49.772Z,21.58
2022-11-22T23:47:18.981Z,21.00
2022-11-22T23:49:49.521Z,21.05
2022-11-22T23:52:18.940Z,20.95
2022-11-22T23:54:47.898Z,23.48
2022-11-22T23:57:16.888Z,19.88
2022-11-22T23:59:45.855Z,21.75
